createdAt,value
2023-02-03T03:12:40.909Z,0.40
2023-02-03T03:37:59.146Z,-0.50
2023-02-03T04:33:36.120Z,-1.30
2023-02-03T05:04:32.148Z,-1.90
2023-02-03T05:29:52.443Z,-1.40
2023-02-03T06:30:51.741Z,-1.20
2023-02-03T07:01:13.723Z,-1.00
2023-02-03T07:21:19.626Z,-0.60
2023-02-03T07:41:54.177Z,-0.20
2023-02-03T08:02:14.785Z,0.30
2023-02-03T08:22:17.288Z,0.60
2023-02-03T08:47:52.035Z,1.20
2023-02-03T09:13:10.536Z,1.50
2023-02-03T09:33:24.293Z,2.10
2023-02-03T09:58:36.154Z,2.10
2023-02-03T10:38:51.035Z,3.10
2023-02-03T11:04:28.295Z,2.70
2023-02-03T11:39:43.394Z,2.60
2023-02-03T12:15:43.501Z,2.70
2023-02-03T12:46:00.740Z,2.60
2023-02-03T13:16:34.911Z,2.30
2023-02-03T13:46:37.869Z,1.60
2023-02-03T14:17:31.568Z,0.70
2023-02-03T14:37:26.390Z,0.30
2023-02-03T15:07:45.331Z,0.20
2023-02-03T15:28:17.031Z,0.20
2023-02-03T16:14:08.101Z,0.10
2023-02-03T16:18:28.033Z,0.10
2023-02-03T16:44:05.785Z,0.20
2023-02-03T17:25:06.211Z,0.30
2023-02-03T18:10:19.393Z,0.40
2023-02-03T18:40:32.259Z,0.50
2023-02-03T19:01:11.554Z,0.40
2023-02-03T19:31:50.644Z,0.30
2023-02-03T20:07:18.284Z,0.30
2023-02-03T20:27:41.680Z,0.30
2023-02-03T20:57:33.231Z,0.40
2023-02-03T21:27:53.621Z,0.30
2023-02-03T22:03:25.334Z,0.20
2023-02-03T22:24:22.603Z,0.20
2023-02-03T22:28:45.424Z,0.10
2023-02-03T22:49:42.970Z,0.00
2023-02-03T22:54:02.384Z,0.00
2023-02-03T23:24:29.792Z,-0.30
2023-02-03T23:45:02.044Z,-0.10
